Anthony, New Mexico
Current Conditions -  °F | °C
As of 5:58 PM on Friday 19 Dec 2014 (Local Time) from KBIF Reporting Station
Clear Clear  
Wind Chill:   Ceiling: Unl
Heat Index:   Visibility: 10mi
Dew Point: -1°   Wind: 5mph
Humidity: 53%   Direction: 270°W
Pressure: 30.13"   Gusts: NA
Location:  32°N, 106.6°W
Report Text: KBIF 200058Z 27004KT 10SM CLR 08/M01 A3013 RMK AO2A LAST SLP192 T00821009 $
Loading
Personal Weather Stations






























Interactive Weather Map New forecast layout! Learn more

10-Day Weather Forecast

Advertisements
Track Severe Weather on mobile